sensor_id;sensor_type;location;lat;lon;timestamp;P1;durP1;ratioP1;P2;durP2;ratioP2
1811;SDS011;904;47.814;11.134;2023-03-01T00:01:13;32.10;;;21.30;;
1811;SDS011;904;47.814;11.134;2023-03-01T00:03:41;40.38;;;23.10;;
1811;SDS011;904;47.814;11.134;2023-03-01T00:06:10;33.75;;;20.95;;
1811;SDS011;904;47.814;11.134;2023-03-01T00:08:38;37.10;;;22.75;;
1811;SDS011;904;47.814;11.134;2023-03-01T00:11:06;34.30;;;21.90;;
1811;SDS011;904;47.814;11.134;2023-03-01T00:13:35;33.60;;;20.73;;
1811;SDS011;904;47.814;11.134;2023-03-01T00:16:04;36.97;;;21.10;;
1811;SDS011;904;47.814;11.134;2023-03-01T00:18:33;31.73;;;20.52;;
1811;SDS011;904;47.814;11.134;2023-03-01T00:21:05;36.25;;;23.65;;
1811;SDS011;904;47.814;11.134;2023-03-01T00:23:33;35.25;;;22.77;;
1811;SDS011;904;47.814;11.134;2023-03-01T00:26:01;38.95;;;23.10;;
1811;SDS011;904;47.814;11.134;2023-03-01T00:28:28;35.30;;;22.65;;
1811;SDS011;904;47.814;11.134;2023-03-01T00:30:56;36.58;;;23.60;;
1811;SDS011;904;47.814;11.134;2023-03-01T00:33:30;40.85;;;22.02;;
1811;SDS011;904;47.814;11.134;2023-03-01T00:35:57;39.28;;;22.73;;
1811;SDS011;904;47.814;11.134;2023-03-01T00:38:25;35.53;;;22.23;;
1811;SDS011;904;47.814;11.134;2023-03-01T00:40:53;34.63;;;22.17;;
1811;SDS011;904;47.814;11.134;2023-03-01T00:43:20;40.90;;;21.90;;
1811;SDS011;904;47.814;11.134;2023-03-01T00:45:48;35.30;;;23.10;;
1811;SDS011;904;47.814;11.134;2023-03-01T00:48:15;33.22;;;22.25;;
1811;SDS011;904;47.814;11.134;2023-03-01T00:50:46;34.42;;;22.77;;
1811;SDS011;904;47.814;11.134;2023-03-01T00:53:14;36.58;;;22.83;;
1811;SDS011;904;47.814;11.134;2023-03-01T00:55:46;40.53;;;22.20;;
1811;SDS011;904;47.814;11.134;2023-03-01T00:58:13;31.98;;;21.80;;
1811;SDS011;904;47.814;11.134;2023-03-01T01:00:40;36.63;;;22.08;;
1811;SDS011;904;47.814;11.134;2023-03-01T01:03:08;34.47;;;22.50;;
1811;SDS011;904;47.814;11.134;2023-03-01T01:05:36;32.30;;;21.35;;
1811;SDS011;904;47.814;11.134;2023-03-01T01:08:04;34.53;;;22.85;;
1811;SDS011;904;47.814;11.134;2023-03-01T01:10:33;32.63;;;21.65;;
1811;SDS011;904;47.814;11.134;2023-03-01T01:13:00;35.67;;;22.13;;
1811;SDS011;904;47.814;11.134;2023-03-01T01:15:27;37.78;;;23.00;;
1811;SDS011;904;47.814;11.134;2023-03-01T01:17:55;35.03;;;22.17;;
1811;SDS011;904;47.814;11.134;2023-03-01T01:20:22;40.38;;;24.05;;
1811;SDS011;904;47.814;11.134;2023-03-01T01:22:49;35.25;;;21.95;;
1811;SDS011;904;47.814;11.134;2023-03-01T01:25:19;31.20;;;20.63;;
1811;SDS011;904;47.814;11.134;2023-03-01T01:27:46;35.65;;;22.60;;
1811;SDS011;904;47.814;11.134;2023-03-01T01:30:13;34.03;;;21.75;;
1811;SDS011;904;47.814;11.134;2023-03-01T01:32:41;32.33;;;24.13;;
1811;SDS011;904;47.814;11.134;2023-03-01T01:35:08;38.70;;;21.42;;
1811;SDS011;904;47.814;11.134;2023-03-01T01:37:35;35.83;;;23.52;;
1811;SDS011;904;47.814;11.134;2023-03-01T01:40:03;34.53;;;22.30;;
1811;SDS011;904;47.814;11.134;2023-03-01T01:42:32;39.70;;;24.55;;
1811;SDS011;904;47.814;11.134;2023-03-01T01:47:58;40.60;;;24.13;;
1811;SDS011;904;47.814;11.134;2023-03-01T01:50:29;39.92;;;23.48;;
1811;SDS011;904;47.814;11.134;2023-03-01T01:53:04;35.88;;;23.17;;
1811;SDS011;904;47.814;11.134;2023-03-01T01:55:33;32.38;;;20.42;;
1811;SDS011;904;47.814;11.134;2023-03-01T01:58:04;43.55;;;23.90;;
1811;SDS011;904;47.814;11.134;2023-03-01T02:00:34;36.63;;;24.42;;
1811;SDS011;904;47.814;11.134;2023-03-01T02:03:05;40.65;;;24.85;;
1811;SDS011;904;47.814;11.134;2023-03-01T02:05:37;32.63;;;22.02;;
1811;SDS011;904;47.814;11.134;2023-03-01T02:08:10;43.17;;;25.10;;
1811;SDS011;904;47.814;11.134;2023-03-01T02:10:39;38.58;;;23.13;;
1811;SDS011;904;47.814;11.134;2023-03-01T02:13:09;34.92;;;22.80;;
1811;SDS011;904;47.814;11.134;2023-03-01T02:15:37;37.80;;;24.15;;
1811;SDS011;904;47.814;11.134;2023-03-01T02:18:07;36.28;;;22.65;;
1811;SDS011;904;47.814;11.134;2023-03-01T02:20:38;34.72;;;22.52;;
1811;SDS011;904;47.814;11.134;2023-03-01T02:23:11;35.95;;;22.88;;
1811;SDS011;904;47.814;11.134;2023-03-01T02:25:42;35.63;;;21.92;;
1811;SDS011;904;47.814;11.134;2023-03-01T02:28:22;38.78;;;24.13;;
1811;SDS011;904;47.814;11.134;2023-03-01T02:31:00;30.58;;;21.73;;
1811;SDS011;904;47.814;11.134;2023-03-01T02:33:43;37.40;;;23.00;;
1811;SDS011;904;47.814;11.134;2023-03-01T02:36:15;39.17;;;23.90;;
1811;SDS011;904;47.814;11.134;2023-03-01T02:38:46;39.85;;;22.80;;
1811;SDS011;904;47.814;11.134;2023-03-01T02:41:16;32.67;;;23.00;;
1811;SDS011;904;47.814;11.134;2023-03-01T02:43:47;36.22;;;22.52;;
1811;SDS011;904;47.814;11.134;2023-03-01T02:46:15;38.25;;;23.20;;
1811;SDS011;904;47.814;11.134;2023-03-01T02:48:45;32.28;;;21.60;;
1811;SDS011;904;47.814;11.134;2023-03-01T02:54:13;32.08;;;20.75;;
1811;SDS011;904;47.814;11.134;2023-03-01T02:56:46;34.22;;;21.55;;
1811;SDS011;904;47.814;11.134;2023-03-01T02:59:16;36.90;;;23.17;;
1811;SDS011;904;47.814;11.134;2023-03-01T03:01:46;36.55;;;23.13;;
1811;SDS011;904;47.814;11.134;2023-03-01T03:04:14;35.10;;;23.10;;
1811;SDS011;904;47.814;11.134;2023-03-01T03:06:43;35.42;;;23.65;;
1811;SDS011;904;47.814;11.134;2023-03-01T03:09:12;36.15;;;22.92;;
1811;SDS011;904;47.814;11.134;2023-03-01T03:11:40;32.05;;;22.20;;
1811;SDS011;904;47.814;11.134;2023-03-01T03:14:08;33.28;;;23.10;;
1811;SDS011;904;47.814;11.134;2023-03-01T03:16:40;32.80;;;21.67;;
1811;SDS011;904;47.814;11.134;2023-03-01T03:19:09;33.67;;;21.05;;
1811;SDS011;904;47.814;11.134;2023-03-01T03:21:37;35.63;;;20.58;;
1811;SDS011;904;47.814;11.134;2023-03-01T03:24:04;29.33;;;20.33;;
1811;SDS011;904;47.814;11.134;2023-03-01T03:26:32;31.40;;;19.75;;
1811;SDS011;904;47.814;11.134;2023-03-01T03:28:59;30.80;;;18.90;;
1811;SDS011;904;47.814;11.134;2023-03-01T03:31:26;22.90;;;16.27;;
1811;SDS011;904;47.814;11.134;2023-03-01T03:33:55;27.70;;;17.38;;
1811;SDS011;904;47.814;11.134;2023-03-01T03:36:24;31.33;;;18.90;;
1811;SDS011;904;47.814;11.134;2023-03-01T03:38:51;29.60;;;16.60;;
1811;SDS011;904;47.814;11.134;2023-03-01T03:41:18;26.45;;;15.77;;
1811;SDS011;904;47.814;11.134;2023-03-01T03:43:46;27.95;;;17.70;;
1811;SDS011;904;47.814;11.134;2023-03-01T03:46:16;28.65;;;18.50;;
1811;SDS011;904;47.814;11.134;2023-03-01T03:48:43;21.45;;;15.50;;
1811;SDS011;904;47.814;11.134;2023-03-01T03:51:13;26.13;;;16.27;;
1811;SDS011;904;47.814;11.134;2023-03-01T03:53:43;21.20;;;14.32;;
1811;SDS011;904;47.814;11.134;2023-03-01T03:56:11;21.75;;;15.35;;
1811;SDS011;904;47.814;11.134;2023-03-01T03:58:39;27.77;;;16.73;;
1811;SDS011;904;47.814;11.134;2023-03-01T04:01:07;26.30;;;16.17;;
1811;SDS011;904;47.814;11.134;2023-03-01T04:03:34;24.02;;;14.07;;
1811;SDS011;904;47.814;11.134;2023-03-01T04:06:02;25.35;;;15.98;;
1811;SDS011;904;47.814;11.134;2023-03-01T04:08:32;23.02;;;15.25;;
1811;SDS011;904;47.814;11.134;2023-03-01T04:11:00;25.45;;;16.95;;
1811;SDS011;904;47.814;11.134;2023-03-01T04:13:51;26.00;;;15.13;;
1811;SDS011;904;47.814;11.134;2023-03-01T04:16:19;24.23;;;15.13;;
1811;SDS011;904;47.814;11.134;2023-03-01T04:18:46;27.05;;;16.38;;
1811;SDS011;904;47.814;11.134;2023-03-01T04:21:14;23.15;;;14.98;;
1811;SDS011;904;47.814;11.134;2023-03-01T04:23:43;25.33;;;14.73;;
1811;SDS011;904;47.814;11.134;2023-03-01T04:26:10;24.00;;;15.85;;
1811;SDS011;904;47.814;11.134;2023-03-01T04:28:38;22.83;;;15.13;;
1811;SDS011;904;47.814;11.134;2023-03-01T04:31:11;22.75;;;16.00;;
1811;SDS011;904;47.814;11.134;2023-03-01T04:33:41;25.40;;;15.70;;
1811;SDS011;904;47.814;11.134;2023-03-01T04:36:10;22.50;;;15.05;;
1811;SDS011;904;47.814;11.134;2023-03-01T04:38:39;27.75;;;15.70;;
1811;SDS011;904;47.814;11.134;2023-03-01T04:41:09;26.15;;;16.30;;
1811;SDS011;904;47.814;11.134;2023-03-01T04:43:37;25.50;;;14.52;;
1811;SDS011;904;47.814;11.134;2023-03-01T04:46:06;25.63;;;17.13;;
1811;SDS011;904;47.814;11.134;2023-03-01T04:48:34;25.38;;;15.70;;
1811;SDS011;904;47.814;11.134;2023-03-01T04:51:02;23.40;;;16.55;;
1811;SDS011;904;47.814;11.134;2023-03-01T04:53:30;25.08;;;16.15;;
1811;SDS011;904;47.814;11.134;2023-03-01T04:55:58;22.83;;;15.50;;
1811;SDS011;904;47.814;11.134;2023-03-01T04:58:27;23.73;;;16.20;;
1811;SDS011;904;47.814;11.134;2023-03-01T05:00:57;25.48;;;14.65;;
1811;SDS011;904;47.814;11.134;2023-03-01T05:03:24;27.45;;;16.65;;
1811;SDS011;904;47.814;11.134;2023-03-01T05:05:52;21.23;;;14.23;;
1811;SDS011;904;47.814;11.134;2023-03-01T05:08:20;18.80;;;13.23;;
1811;SDS011;904;47.814;11.134;2023-03-01T05:10:48;24.17;;;15.50;;
1811;SDS011;904;47.814;11.134;2023-03-01T05:13:17;22.92;;;15.63;;
1811;SDS011;904;47.814;11.134;2023-03-01T05:15:49;24.45;;;15.48;;
1811;SDS011;904;47.814;11.134;2023-03-01T05:18:21;23.88;;;14.65;;
1811;SDS011;904;47.814;11.134;2023-03-01T05:20:51;23.55;;;15.48;;
1811;SDS011;904;47.814;11.134;2023-03-01T05:23:23;26.48;;;15.13;;
1811;SDS011;904;47.814;11.134;2023-03-01T05:25:50;30.95;;;15.38;;
1811;SDS011;904;47.814;11.134;2023-03-01T05:28:23;25.33;;;15.07;;
1811;SDS011;904;47.814;11.134;2023-03-01T05:30:52;19.05;;;12.80;;
1811;SDS011;904;47.814;11.134;2023-03-01T05:33:19;23.10;;;14.52;;
1811;SDS011;904;47.814;11.134;2023-03-01T05:35:47;21.58;;;14.60;;
1811;SDS011;904;47.814;11.134;2023-03-01T05:38:16;26.05;;;15.35;;
1811;SDS011;904;47.814;11.134;2023-03-01T05:40:44;25.00;;;15.10;;
1811;SDS011;904;47.814;11.134;2023-03-01T05:43:13;21.52;;;13.57;;
1811;SDS011;904;47.814;11.134;2023-03-01T05:45:43;24.33;;;15.70;;
1811;SDS011;904;47.814;11.134;2023-03-01T05:48:12;26.13;;;15.63;;
1811;SDS011;904;47.814;11.134;2023-03-01T05:50:44;20.20;;;14.65;;
1811;SDS011;904;47.814;11.134;2023-03-01T05:53:13;22.52;;;14.20;;
1811;SDS011;904;47.814;11.134;2023-03-01T05:55:42;24.50;;;14.65;;
1811;SDS011;904;47.814;11.134;2023-03-01T05:58:12;21.05;;;14.63;;
1811;SDS011;904;47.814;11.134;2023-03-01T06:00:41;26.17;;;15.05;;
1811;SDS011;904;47.814;11.134;2023-03-01T06:03:13;23.83;;;15.98;;
1811;SDS011;904;47.814;11.134;2023-03-01T06:05:42;22.70;;;14.80;;
1811;SDS011;904;47.814;11.134;2023-03-01T06:08:10;25.20;;;15.82;;
1811;SDS011;904;47.814;11.134;2023-03-01T06:10:38;25.23;;;17.55;;
1811;SDS011;904;47.814;11.134;2023-03-01T06:13:07;26.10;;;18.67;;
1811;SDS011;904;47.814;11.134;2023-03-01T06:15:34;21.88;;;15.27;;
1811;SDS011;904;47.814;11.134;2023-03-01T06:18:01;24.38;;;14.80;;
1811;SDS011;904;47.814;11.134;2023-03-01T06:20:32;28.92;;;16.40;;
1811;SDS011;904;47.814;11.134;2023-03-01T06:22:59;30.85;;;19.20;;
1811;SDS011;904;47.814;11.134;2023-03-01T06:25:26;26.50;;;16.20;;
1811;SDS011;904;47.814;11.134;2023-03-01T06:27:54;21.95;;;15.48;;
1811;SDS011;904;47.814;11.134;2023-03-01T06:30:22;24.65;;;16.15;;
1811;SDS011;904;47.814;11.134;2023-03-01T06:32:50;26.42;;;15.20;;
1811;SDS011;904;47.814;11.134;2023-03-01T06:35:18;25.83;;;16.88;;
1811;SDS011;904;47.814;11.134;2023-03-01T06:37:47;22.17;;;15.25;;
1811;SDS011;904;47.814;11.134;2023-03-01T06:40:15;21.63;;;14.43;;
1811;SDS011;904;47.814;11.134;2023-03-01T06:42:43;24.35;;;15.57;;
1811;SDS011;904;47.814;11.134;2023-03-01T06:45:15;25.40;;;16.88;;
1811;SDS011;904;47.814;11.134;2023-03-01T06:47:52;25.63;;;16.20;;
1811;SDS011;904;47.814;11.134;2023-03-01T06:50:21;22.13;;;15.25;;
1811;SDS011;904;47.814;11.134;2023-03-01T06:52:50;23.38;;;13.77;;
1811;SDS011;904;47.814;11.134;2023-03-01T06:55:22;28.05;;;15.63;;
1811;SDS011;904;47.814;11.134;2023-03-01T06:57:53;20.48;;;14.70;;
1811;SDS011;904;47.814;11.134;2023-03-01T07:00:22;22.35;;;15.90;;
1811;SDS011;904;47.814;11.134;2023-03-01T07:02:50;24.27;;;15.10;;
1811;SDS011;904;47.814;11.134;2023-03-01T07:05:17;23.45;;;14.75;;
1811;SDS011;904;47.814;11.134;2023-03-01T07:07:45;22.00;;;14.80;;
1811;SDS011;904;47.814;11.134;2023-03-01T07:10:14;21.25;;;14.90;;
1811;SDS011;904;47.814;11.134;2023-03-01T07:12:41;22.42;;;14.35;;
1811;SDS011;904;47.814;11.134;2023-03-01T07:15:09;23.70;;;16.92;;
1811;SDS011;904;47.814;11.134;2023-03-01T07:17:37;31.13;;;22.00;;
1811;SDS011;904;47.814;11.134;2023-03-01T07:20:05;20.17;;;14.05;;
1811;SDS011;904;47.814;11.134;2023-03-01T07:22:32;24.80;;;16.15;;
1811;SDS011;904;47.814;11.134;2023-03-01T07:25:01;21.17;;;15.18;;
1811;SDS011;904;47.814;11.134;2023-03-01T07:27:30;25.73;;;17.17;;
1811;SDS011;904;47.814;11.134;2023-03-01T07:29:59;24.10;;;17.80;;
1811;SDS011;904;47.814;11.134;2023-03-01T07:32:27;22.83;;;15.80;;
1811;SDS011;904;47.814;11.134;2023-03-01T07:34:54;26.67;;;16.75;;
1811;SDS011;904;47.814;11.134;2023-03-01T07:37:21;26.15;;;18.35;;
1811;SDS011;904;47.814;11.134;2023-03-01T07:39:48;24.90;;;16.70;;
1811;SDS011;904;47.814;11.134;2023-03-01T07:42:15;25.67;;;17.42;;
1811;SDS011;904;47.814;11.134;2023-03-01T07:44:49;27.55;;;17.65;;
1811;SDS011;904;47.814;11.134;2023-03-01T07:47:16;25.83;;;16.95;;
1811;SDS011;904;47.814;11.134;2023-03-01T07:49:43;23.95;;;17.00;;
1811;SDS011;904;47.814;11.134;2023-03-01T07:52:11;27.35;;;18.30;;
1811;SDS011;904;47.814;11.134;2023-03-01T07:54:39;30.17;;;19.45;;
1811;SDS011;904;47.814;11.134;2023-03-01T07:57:09;27.90;;;19.20;;
1811;SDS011;904;47.814;11.134;2023-03-01T07:59:36;27.05;;;19.13;;
1811;SDS011;904;47.814;11.134;2023-03-01T08:02:05;28.48;;;18.10;;
1811;SDS011;904;47.814;11.134;2023-03-01T08:04:32;26.67;;;17.02;;
1811;SDS011;904;47.814;11.134;2023-03-01T08:06:59;22.02;;;16.05;;
1811;SDS011;904;47.814;11.134;2023-03-01T08:09:26;27.60;;;16.45;;
1811;SDS011;904;47.814;11.134;2023-03-01T08:11:53;22.13;;;16.50;;
1811;SDS011;904;47.814;11.134;2023-03-01T08:14:22;23.55;;;15.45;;
1811;SDS011;904;47.814;11.134;2023-03-01T08:16:49;29.77;;;17.55;;
1811;SDS011;904;47.814;11.134;2023-03-01T08:19:18;24.45;;;17.05;;
1811;SDS011;904;47.814;11.134;2023-03-01T08:21:45;24.40;;;16.55;;
1811;SDS011;904;47.814;11.134;2023-03-01T08:24:12;24.02;;;15.57;;
1811;SDS011;904;47.814;11.134;2023-03-01T08:26:39;27.58;;;16.85;;
1811;SDS011;904;47.814;11.134;2023-03-01T08:29:06;23.33;;;17.08;;
1811;SDS011;904;47.814;11.134;2023-03-01T08:31:34;23.42;;;17.73;;
1811;SDS011;904;47.814;11.134;2023-03-01T08:34:05;24.40;;;16.33;;
1811;SDS011;904;47.814;11.134;2023-03-01T08:36:36;30.23;;;18.27;;
1811;SDS011;904;47.814;11.134;2023-03-01T08:39:10;24.95;;;17.35;;
1811;SDS011;904;47.814;11.134;2023-03-01T08:41:39;27.30;;;17.33;;
1811;SDS011;904;47.814;11.134;2023-03-01T08:44:07;25.25;;;17.75;;
1811;SDS011;904;47.814;11.134;2023-03-01T08:46:36;25.77;;;18.17;;
1811;SDS011;904;47.814;11.134;2023-03-01T08:49:04;27.45;;;18.15;;
1811;SDS011;904;47.814;11.134;2023-03-01T08:51:32;25.40;;;17.45;;
1811;SDS011;904;47.814;11.134;2023-03-01T08:54:03;25.70;;;16.15;;
1811;SDS011;904;47.814;11.134;2023-03-01T08:56:30;29.40;;;18.30;;
1811;SDS011;904;47.814;11.134;2023-03-01T08:58:58;22.73;;;17.10;;
1811;SDS011;904;47.814;11.134;2023-03-01T09:01:25;24.38;;;17.23;;
1811;SDS011;904;47.814;11.134;2023-03-01T09:03:53;23.83;;;16.00;;
1811;SDS011;904;47.814;11.134;2023-03-01T09:06:20;28.25;;;16.65;;
1811;SDS011;904;47.814;11.134;2023-03-01T09:08:51;25.70;;;17.42;;
1811;SDS011;904;47.814;11.134;2023-03-01T09:11:21;22.45;;;16.30;;
1811;SDS011;904;47.814;11.134;2023-03-01T09:13:49;25.15;;;18.13;;
1811;SDS011;904;47.814;11.134;2023-03-01T09:16:17;28.92;;;17.27;;
1811;SDS011;904;47.814;11.134;2023-03-01T09:18:48;24.85;;;18.00;;
1811;SDS011;904;47.814;11.134;2023-03-01T09:21:17;25.95;;;19.13;;
1811;SDS011;904;47.814;11.134;2023-03-01T09:23:46;24.48;;;17.75;;
1811;SDS011;904;47.814;11.134;2023-03-01T09:26:15;23.85;;;17.70;;
1811;SDS011;904;47.814;11.134;2023-03-01T09:28:46;26.85;;;17.77;;
1811;SDS011;904;47.814;11.134;2023-03-01T09:31:13;25.98;;;19.25;;
1811;SDS011;904;47.814;11.134;2023-03-01T09:33:42;25.75;;;17.67;;
1811;SDS011;904;47.814;11.134;2023-03-01T09:36:12;25.10;;;19.00;;
1811;SDS011;904;47.814;11.134;2023-03-01T09:38:41;25.80;;;16.88;;
1811;SDS011;904;47.814;11.134;2023-03-01T09:41:10;26.50;;;17.67;;
1811;SDS011;904;47.814;11.134;2023-03-01T09:43:48;24.27;;;16.80;;
1811;SDS011;904;47.814;11.134;2023-03-01T09:46:19;21.88;;;16.25;;
1811;SDS011;904;47.814;11.134;2023-03-01T09:48:50;22.60;;;15.70;;
1811;SDS011;904;47.814;11.134;2023-03-01T09:51:24;22.63;;;17.27;;
1811;SDS011;904;47.814;11.134;2023-03-01T09:53:56;24.75;;;15.98;;
1811;SDS011;904;47.814;11.134;2023-03-01T09:56:27;22.70;;;16.23;;
1811;SDS011;904;47.814;11.134;2023-03-01T09:59:04;24.85;;;16.00;;
1811;SDS011;904;47.814;11.134;2023-03-01T10:01:43;22.42;;;17.00;;
1811;SDS011;904;47.814;11.134;2023-03-01T10:04:28;24.48;;;16.48;;
1811;SDS011;904;47.814;11.134;2023-03-01T10:07:13;25.15;;;17.10;;
1811;SDS011;904;47.814;11.134;2023-03-01T10:09:47;25.10;;;15.52;;
1811;SDS011;904;47.814;11.134;2023-03-01T10:12:15;23.73;;;16.13;;
1811;SDS011;904;47.814;11.134;2023-03-01T10:14:48;23.10;;;15.55;;
1811;SDS011;904;47.814;11.134;2023-03-01T10:17:24;24.45;;;15.10;;
1811;SDS011;904;47.814;11.134;2023-03-01T10:19:57;24.20;;;16.92;;
1811;SDS011;904;47.814;11.134;2023-03-01T10:22:42;23.45;;;16.17;;
1811;SDS011;904;47.814;11.134;2023-03-01T10:25:15;24.92;;;17.33;;
1811;SDS011;904;47.814;11.134;2023-03-01T10:27:49;20.27;;;16.33;;
1811;SDS011;904;47.814;11.134;2023-03-01T10:30:21;22.20;;;15.35;;
1811;SDS011;904;47.814;11.134;2023-03-01T10:33:01;22.70;;;16.30;;
1811;SDS011;904;47.814;11.134;2023-03-01T10:35:31;19.25;;;15.60;;
1811;SDS011;904;47.814;11.134;2023-03-01T10:38:03;20.30;;;15.15;;
1811;SDS011;904;47.814;11.134;2023-03-01T10:40:32;20.65;;;14.70;;
1811;SDS011;904;47.814;11.134;2023-03-01T10:43:01;20.92;;;15.02;;
1811;SDS011;904;47.814;11.134;2023-03-01T10:45:35;21.83;;;14.82;;
1811;SDS011;904;47.814;11.134;2023-03-01T10:48:05;17.98;;;14.20;;
1811;SDS011;904;47.814;11.134;2023-03-01T10:50:38;15.77;;;12.02;;
1811;SDS011;904;47.814;11.134;2023-03-01T10:53:08;18.65;;;14.25;;
1811;SDS011;904;47.814;11.134;2023-03-01T10:55:56;18.60;;;14.68;;
1811;SDS011;904;47.814;11.134;2023-03-01T10:58:28;20.77;;;14.35;;
1811;SDS011;904;47.814;11.134;2023-03-01T11:00:58;21.33;;;16.25;;
1811;SDS011;904;47.814;11.134;2023-03-01T11:03:28;19.65;;;15.18;;
1811;SDS011;904;47.814;11.134;2023-03-01T11:06:02;21.67;;;14.05;;
1811;SDS011;904;47.814;11.134;2023-03-01T11:08:33;23.27;;;15.70;;
1811;SDS011;904;47.814;11.134;2023-03-01T11:13:53;17.70;;;12.95;;
1811;SDS011;904;47.814;11.134;2023-03-01T11:16:31;19.27;;;14.70;;
1811;SDS011;904;47.814;11.134;2023-03-01T11:19:03;21.52;;;13.90;;
1811;SDS011;904;47.814;11.134;2023-03-01T11:21:41;19.85;;;15.15;;
1811;SDS011;904;47.814;11.134;2023-03-01T11:24:19;20.58;;;13.80;;
1811;SDS011;904;47.814;11.134;2023-03-01T11:26:52;18.08;;;14.18;;
1811;SDS011;904;47.814;11.134;2023-03-01T11:29:26;22.13;;;15.18;;
1811;SDS011;904;47.814;11.134;2023-03-01T11:31:59;19.77;;;14.25;;
1811;SDS011;904;47.814;11.134;2023-03-01T11:34:35;25.38;;;18.83;;
1811;SDS011;904;47.814;11.134;2023-03-01T11:37:15;29.00;;;21.35;;
1811;SDS011;904;47.814;11.134;2023-03-01T11:39:52;31.55;;;23.23;;
1811;SDS011;904;47.814;11.134;2023-03-01T11:42:33;23.52;;;17.58;;
1811;SDS011;904;47.814;11.134;2023-03-01T11:45:11;18.33;;;13.98;;
1811;SDS011;904;47.814;11.134;2023-03-01T11:50:44;19.13;;;14.93;;
1811;SDS011;904;47.814;11.134;2023-03-01T11:53:18;25.35;;;16.60;;
1811;SDS011;904;47.814;11.134;2023-03-01T11:56:06;20.02;;;13.63;;
1811;SDS011;904;47.814;11.134;2023-03-01T11:58:49;22.70;;;13.95;;
1811;SDS011;904;47.814;11.134;2023-03-01T12:01:48;24.27;;;15.77;;
1811;SDS011;904;47.814;11.134;2023-03-01T12:04:52;20.83;;;15.30;;
1811;SDS011;904;47.814;11.134;2023-03-01T12:07:35;23.13;;;15.23;;
1811;SDS011;904;47.814;11.134;2023-03-01T12:10:22;20.30;;;14.10;;
1811;SDS011;904;47.814;11.134;2023-03-01T12:12:57;22.02;;;15.68;;
1811;SDS011;904;47.814;11.134;2023-03-01T12:16:00;19.63;;;15.00;;
1811;SDS011;904;47.814;11.134;2023-03-01T12:18:53;29.27;;;19.63;;
1811;SDS011;904;47.814;11.134;2023-03-01T12:21:34;22.05;;;14.70;;
1811;SDS011;904;47.814;11.134;2023-03-01T12:24:22;27.17;;;15.27;;
1811;SDS011;904;47.814;11.134;2023-03-01T12:27:20;23.85;;;15.25;;
1811;SDS011;904;47.814;11.134;2023-03-01T12:30:00;23.63;;;14.10;;
1811;SDS011;904;47.814;11.134;2023-03-01T12:32:48;19.67;;;14.60;;
1811;SDS011;904;47.814;11.134;2023-03-01T12:35:33;17.50;;;13.35;;
1811;SDS011;904;47.814;11.134;2023-03-01T12:38:15;22.80;;;15.50;;
1811;SDS011;904;47.814;11.134;2023-03-01T12:41:05;21.73;;;15.18;;
1811;SDS011;904;47.814;11.134;2023-03-01T12:43:58;24.35;;;15.32;;
1811;SDS011;904;47.814;11.134;2023-03-01T12:46:41;27.17;;;16.55;;
1811;SDS011;904;47.814;11.134;2023-03-01T12:49:19;24.55;;;15.20;;
1811;SDS011;904;47.814;11.134;2023-03-01T12:51:59;20.90;;;14.63;;
1811;SDS011;904;47.814;11.134;2023-03-01T12:54:36;20.88;;;15.27;;
1811;SDS011;904;47.814;11.134;2023-03-01T12:57:07;22.25;;;16.65;;
1811;SDS011;904;47.814;11.134;2023-03-01T12:59:42;27.15;;;17.63;;
1811;SDS011;904;47.814;11.134;2023-03-01T13:02:33;28.33;;;16.67;;
1811;SDS011;904;47.814;11.134;2023-03-01T13:05:17;21.52;;;13.93;;
1811;SDS011;904;47.814;11.134;2023-03-01T13:07:54;24.85;;;16.38;;
1811;SDS011;904;47.814;11.134;2023-03-01T13:10:34;23.50;;;16.08;;
1811;SDS011;904;47.814;11.134;2023-03-01T13:13:13;25.83;;;16.58;;
1811;SDS011;904;47.814;11.134;2023-03-01T13:15:45;28.13;;;16.60;;
1811;SDS011;904;47.814;11.134;2023-03-01T13:18:30;26.02;;;16.60;;
1811;SDS011;904;47.814;11.134;2023-03-01T13:20:59;22.92;;;15.40;;
1811;SDS011;904;47.814;11.134;2023-03-01T13:23:30;26.50;;;19.13;;
1811;SDS011;904;47.814;11.134;2023-03-01T13:26:05;25.00;;;16.00;;
1811;SDS011;904;47.814;11.134;2023-03-01T13:34:40;24.90;;;16.85;;
1811;SDS011;904;47.814;11.134;2023-03-01T13:37:18;28.02;;;18.52;;
1811;SDS011;904;47.814;11.134;2023-03-01T13:39:55;21.55;;;15.43;;
1811;SDS011;904;47.814;11.134;2023-03-01T13:42:35;26.85;;;17.73;;
1811;SDS011;904;47.814;11.134;2023-03-01T13:48:02;21.42;;;16.02;;
1811;SDS011;904;47.814;11.134;2023-03-01T13:50:37;27.15;;;18.45;;
1811;SDS011;904;47.814;11.134;2023-03-01T13:53:12;28.00;;;18.52;;
1811;SDS011;904;47.814;11.134;2023-03-01T13:55:44;23.75;;;16.42;;
1811;SDS011;904;47.814;11.134;2023-03-01T13:58:18;24.67;;;18.08;;
1811;SDS011;904;47.814;11.134;2023-03-01T14:00:54;27.63;;;17.83;;
1811;SDS011;904;47.814;11.134;2023-03-01T14:03:22;26.23;;;16.80;;
1811;SDS011;904;47.814;11.134;2023-03-01T14:06:00;26.02;;;16.00;;
1811;SDS011;904;47.814;11.134;2023-03-01T14:08:33;21.58;;;15.35;;
1811;SDS011;904;47.814;11.134;2023-03-01T14:11:13;26.02;;;17.08;;
1811;SDS011;904;47.814;11.134;2023-03-01T14:13:57;23.05;;;16.35;;
1811;SDS011;904;47.814;11.134;2023-03-01T14:16:46;24.85;;;16.50;;
1811;SDS011;904;47.814;11.134;2023-03-01T14:19:24;22.45;;;15.02;;
1811;SDS011;904;47.814;11.134;2023-03-01T14:21:58;24.17;;;17.10;;
1811;SDS011;904;47.814;11.134;2023-03-01T14:24:44;22.90;;;15.55;;
1811;SDS011;904;47.814;11.134;2023-03-01T14:27:23;22.60;;;15.13;;
1811;SDS011;904;47.814;11.134;2023-03-01T14:29:56;25.67;;;15.65;;
1811;SDS011;904;47.814;11.134;2023-03-01T14:32:25;20.48;;;14.30;;
1811;SDS011;904;47.814;11.134;2023-03-01T14:34:54;25.02;;;16.17;;
1811;SDS011;904;47.814;11.134;2023-03-01T14:37:24;23.30;;;13.73;;
1811;SDS011;904;47.814;11.134;2023-03-01T14:39:53;29.60;;;17.45;;
1811;SDS011;904;47.814;11.134;2023-03-01T14:42:22;24.73;;;16.00;;
1811;SDS011;904;47.814;11.134;2023-03-01T14:44:52;24.67;;;17.88;;
1811;SDS011;904;47.814;11.134;2023-03-01T14:47:27;25.27;;;16.83;;
1811;SDS011;904;47.814;11.134;2023-03-01T14:49:57;25.40;;;15.88;;
1811;SDS011;904;47.814;11.134;2023-03-01T14:52:32;23.35;;;17.50;;
1811;SDS011;904;47.814;11.134;2023-03-01T14:55:04;22.33;;;15.48;;
1811;SDS011;904;47.814;11.134;2023-03-01T14:57:42;25.58;;;16.90;;
1811;SDS011;904;47.814;11.134;2023-03-01T15:00:14;26.52;;;18.52;;
1811;SDS011;904;47.814;11.134;2023-03-01T15:02:47;26.60;;;17.52;;
1811;SDS011;904;47.814;11.134;2023-03-01T15:05:18;25.77;;;16.80;;
1811;SDS011;904;47.814;11.134;2023-03-01T15:07:52;25.33;;;17.13;;
1811;SDS011;904;47.814;11.134;2023-03-01T15:10:20;29.45;;;18.42;;
1811;SDS011;904;47.814;11.134;2023-03-01T15:12:49;25.02;;;15.52;;
1811;SDS011;904;47.814;11.134;2023-03-01T15:15:30;26.08;;;16.40;;
1811;SDS011;904;47.814;11.134;2023-03-01T15:18:02;28.42;;;16.50;;
1811;SDS011;904;47.814;11.134;2023-03-01T15:20:31;30.90;;;17.85;;
1811;SDS011;904;47.814;11.134;2023-03-01T15:23:03;25.40;;;17.25;;
1811;SDS011;904;47.814;11.134;2023-03-01T15:25:31;25.80;;;18.23;;
1811;SDS011;904;47.814;11.134;2023-03-01T15:28:00;26.30;;;16.42;;
1811;SDS011;904;47.814;11.134;2023-03-01T15:30:31;28.55;;;16.70;;
1811;SDS011;904;47.814;11.134;2023-03-01T15:35:48;23.85;;;16.00;;
1811;SDS011;904;47.814;11.134;2023-03-01T15:38:26;26.00;;;16.23;;